Flight Number: EUR1588 Duration: 2:45
Departure: Amsterdam Schiphol (EHAM) at 18:15 Distance: 1016 Nm
Arrival: Malaga (LEMG) at 21:00 Equipment: A321

Weather Information
Amsterdam Airport Schiphol, Netherlands (EHAM) 52-18N 004-46E -2M Sep 21, 2017 - 05:25 PM EDT / 2017.09.21 2125 UTC
Wind: from the SE (130 degrees) at 8 MPH (7 KT):0
Visibility: greater than 7 mile(s):0
Sky conditions: mostly clear Temperature: 55 F (13 C) Dew Point: 50 F (10 C) Relative Humidity: 81% Pressure (altimeter): 30.09 in. Hg (1019 hPa)
ob: EHAM 212125Z 13007KT 9999 FEW040 13/10 Q1019 NOSIG cycle: 21
Sunrise: 05:30 Sunset: 17:37 (UTC)

Malaga / Aeropuerto, Spain (LEMG) 36-40N 004-29W 7M Sep 21, 2017 - 05:00 PM EDT / 2017.09.21 2100 UTC
Wind: Variable at 2 MPH (2 KT):0
Visibility: greater than 7 mile(s):0 Temperature: 68 F (20 C) Dew Point: 64 F (18 C) Relative Humidity: 88% Pressure (altimeter): 30.00 in. Hg (1016 hPa)
ob: LEMG 212100Z VRB02KT CAVOK 20/18 Q1016 NOSIG cycle: 21
Sunrise: 06:08 Sunset: 18:13 (UTC)

TAF:2017/09/21 18:27 TAF LEMG 211700Z 2118/2218 14007KT CAVOK TX27/2213Z TN15/2206Z BECMG 2118/2120 VRB02KT BECMG 2123/2201 29006KT BECMG 2209/2211 13008KT

Previous Pireps for this route
Date Aircraft Flight time Fuel used Landing rate On time
2017-08-22A3212.2913440-832Yes
2017-09-01A3212.34878702000-551No
(pireps marked green are flown by you)

Route map